Mayville, New York
Current Conditions -  °F | °C
As of 3:55 PM on Thursday 20 Nov 2014 (Local Time) from KJHW Reporting Station
Broken Clouds Broken Clouds  
Wind Chill:   Ceiling: 4100
Heat Index: 21°   Visibility: 10mi
Dew Point:   Wind: 15mph
Humidity: 58%   Direction: 220°SW
Pressure: 29.84"   Gusts: 22mph
Location:  42.25°N, 79.5°W
Report Text: KJHW 202055Z AUTO 22013G19KT 10SM BKN041 BKN048 BKN055 M06/M13 A2984 RMK AO1 52010
Loading
Personal Weather Stations






























Interactive Weather Map New forecast layout! Learn more

10-Day Weather Forecast

Advertisements
Track Severe Weather on mobile